createdAt,value
2023-03-10T00:00:23.143Z,21.75
2023-03-10T00:03:11.110Z,17.42
2023-03-10T00:05:39.118Z,16.40
2023-03-10T00:08:07.240Z,25.83
2023-03-10T00:10:34.517Z,21.20
2023-03-10T00:13:02.004Z,17.48
2023-03-10T00:15:29.186Z,17.77
2023-03-10T00:17:56.778Z,30.65
2023-03-10T00:20:24.225Z,32.75
2023-03-10T00:22:51.650Z,19.15
2023-03-10T00:25:19.570Z,29.70
2023-03-10T00:27:46.999Z,25.02
2023-03-10T00:30:15.211Z,22.00
2023-03-10T00:32:42.849Z,22.48
2023-03-10T00:35:09.999Z,27.77
2023-03-10T00:37:38.393Z,21.80
2023-03-10T00:40:10.221Z,23.17
2023-03-10T00:42:37.872Z,18.55
2023-03-10T00:45:05.537Z,23.98
2023-03-10T00:47:33.566Z,21.17
2023-03-10T00:50:00.884Z,20.88
2023-03-10T00:52:33.086Z,17.38
2023-03-10T00:55:00.351Z,19.43
2023-03-10T00:57:27.839Z,20.58
2023-03-10T00:59:55.263Z,17.70
2023-03-10T01:02:22.875Z,17.10
2023-03-10T01:04:50.561Z,20.92
2023-03-10T01:07:18.310Z,19.67
2023-03-10T01:09:45.435Z,19.67
2023-03-10T01:12:12.943Z,22.77
2023-03-10T01:14:40.123Z,22.00
2023-03-10T01:17:08.960Z,22.38
2023-03-10T01:19:36.202Z,19.02
2023-03-10T01:22:03.715Z,23.55
2023-03-10T01:24:31.365Z,17.45
2023-03-10T01:26:58.967Z,22.80
2023-03-10T01:29:27.073Z,24.85
2023-03-10T01:31:56.634Z,24.17
2023-03-10T01:34:23.806Z,29.42
2023-03-10T01:36:51.521Z,27.70
2023-03-10T01:39:18.697Z,23.75
2023-03-10T01:41:46.104Z,25.52
2023-03-10T01:44:20.158Z,21.05
2023-03-10T01:46:56.066Z,22.10
2023-03-10T01:49:45.187Z,25.55
2023-03-10T01:52:18.842Z,22.50
2023-03-10T01:54:50.999Z,19.10
2023-03-10T01:57:23.939Z,28.73
2023-03-10T01:59:52.476Z,27.63
2023-03-10T02:02:22.056Z,27.67
2023-03-10T02:04:51.879Z,26.50
2023-03-10T02:07:26.256Z,24.80
2023-03-10T02:09:54.804Z,22.15
2023-03-10T02:12:22.248Z,22.38
2023-03-10T02:14:50.093Z,24.95
2023-03-10T02:17:19.015Z,33.13
2023-03-10T02:20:04.500Z,31.75
2023-03-10T02:22:33.199Z,25.45
2023-03-10T02:25:25.716Z,27.13
2023-03-10T02:27:53.386Z,38.75
2023-03-10T02:30:24.135Z,31.73
2023-03-10T02:32:59.384Z,25.48
2023-03-10T02:35:27.705Z,28.10
2023-03-10T02:40:37.628Z,28.10
2023-03-10T02:43:34.425Z,28.85
2023-03-10T02:46:12.314Z,30.60
2023-03-10T02:48:42.973Z,33.17
2023-03-10T02:51:24.024Z,28.65
2023-03-10T02:53:52.730Z,31.27
2023-03-10T02:56:20.386Z,28.13
2023-03-10T02:58:50.035Z,30.23
2023-03-10T03:01:17.410Z,26.08
2023-03-10T03:03:44.973Z,30.52
2023-03-10T03:06:13.270Z,32.10
2023-03-10T03:08:41.559Z,31.17
2023-03-10T03:11:12.150Z,27.38
2023-03-10T03:13:39.771Z,29.00
2023-03-10T03:16:08.984Z,27.75
2023-03-10T03:18:37.425Z,26.35
2023-03-10T03:21:07.179Z,27.05
2023-03-10T03:23:36.014Z,31.77
2023-03-10T03:26:03.336Z,30.10
2023-03-10T03:28:31.121Z,31.60
2023-03-10T03:30:58.299Z,32.47
2023-03-10T03:33:26.056Z,26.88
2023-03-10T03:35:53.429Z,23.98
2023-03-10T03:38:20.945Z,27.92
2023-03-10T03:40:50.196Z,29.75
2023-03-10T03:43:21.315Z,30.02
2023-03-10T03:45:49.018Z,32.42
2023-03-10T03:48:16.938Z,30.35
2023-03-10T03:50:44.497Z,32.83
2023-03-10T03:53:22.962Z,30.30
2023-03-10T03:55:51.404Z,33.95
2023-03-10T03:58:21.631Z,38.08
2023-03-10T04:00:51.755Z,37.58
2023-03-10T04:03:20.234Z,31.08
2023-03-10T04:05:48.611Z,31.17
2023-03-10T04:08:16.328Z,31.95
2023-03-10T04:10:43.489Z,33.80
2023-03-10T04:13:10.988Z,33.10
2023-03-10T04:15:38.673Z,34.42
2023-03-10T04:18:07.054Z,26.58
2023-03-10T04:20:34.259Z,33.38
2023-03-10T04:23:02.208Z,31.92
2023-03-10T04:25:33.258Z,33.58
2023-03-10T04:28:01.812Z,38.42
2023-03-10T04:30:30.007Z,36.72
2023-03-10T04:33:01.567Z,39.10
2023-03-10T04:35:31.556Z,39.80
2023-03-10T04:38:00.145Z,35.05
2023-03-10T04:40:27.703Z,33.60
2023-03-10T04:42:55.243Z,36.83
2023-03-10T04:45:22.679Z,37.67
2023-03-10T04:47:50.248Z,40.67
2023-03-10T04:50:17.796Z,49.50
2023-03-10T04:52:47.685Z,50.65
2023-03-10T04:55:15.089Z,41.60
2023-03-10T04:57:43.277Z,34.45
2023-03-10T05:00:12.875Z,38.40
2023-03-10T05:02:41.696Z,38.70
2023-03-10T05:05:10.561Z,44.13
2023-03-10T05:07:40.977Z,46.20
2023-03-10T05:10:09.407Z,36.28
2023-03-10T05:12:39.087Z,43.45
2023-03-10T05:15:06.991Z,42.53
2023-03-10T05:17:34.465Z,36.92
2023-03-10T05:20:04.193Z,36.67
2023-03-10T05:22:32.136Z,43.78
2023-03-10T05:24:59.484Z,42.70
2023-03-10T05:27:27.207Z,34.53
2023-03-10T05:29:54.875Z,39.83
2023-03-10T05:32:26.008Z,48.55
2023-03-10T05:34:53.570Z,43.83
2023-03-10T05:37:21.393Z,42.40
2023-03-10T05:39:48.881Z,42.08
2023-03-10T05:42:20.754Z,45.13
2023-03-10T05:44:48.231Z,42.35
2023-03-10T05:47:19.168Z,49.55
2023-03-10T05:49:47.769Z,38.83
2023-03-10T05:52:15.817Z,44.83
2023-03-10T05:54:45.029Z,43.28
2023-03-10T05:57:14.536Z,45.45
2023-03-10T05:59:42.346Z,49.28
2023-03-10T06:02:10.481Z,38.08
2023-03-10T06:04:38.016Z,50.28
2023-03-10T06:07:06.990Z,51.47
2023-03-10T06:09:34.195Z,50.30
2023-03-10T06:12:01.715Z,56.08
2023-03-10T06:14:29.312Z,52.13
2023-03-10T06:16:57.128Z,48.15
2023-03-10T06:19:25.079Z,53.58
2023-03-10T06:21:52.775Z,54.38
2023-03-10T06:24:20.261Z,55.05
2023-03-10T06:26:47.698Z,58.63
2023-03-10T06:29:14.868Z,56.72
2023-03-10T06:31:42.507Z,61.90
2023-03-10T06:34:09.717Z,57.92
2023-03-10T06:36:40.344Z,51.05
2023-03-10T06:39:08.100Z,69.47
2023-03-10T06:41:36.558Z,64.25
2023-03-10T06:44:03.976Z,63.30
2023-03-10T06:46:31.674Z,71.32
2023-03-10T06:48:59.084Z,58.58
2023-03-10T06:51:26.746Z,71.88
2023-03-10T06:53:55.362Z,83.55
2023-03-10T06:56:23.276Z,76.00
2023-03-10T06:58:50.632Z,67.93
2023-03-10T07:01:27.765Z,75.38
2023-03-10T07:03:57.956Z,70.95
2023-03-10T07:06:26.188Z,91.32
2023-03-10T07:08:56.070Z,83.97
2023-03-10T07:11:26.909Z,97.13
2023-03-10T07:13:55.106Z,75.45
2023-03-10T07:16:23.561Z,80.20
2023-03-10T07:18:51.017Z,75.13
2023-03-10T07:21:20.857Z,72.85
2023-03-10T07:23:48.131Z,87.10
2023-03-10T07:26:18.790Z,65.95
2023-03-10T07:28:46.985Z,71.28
2023-03-10T07:31:15.543Z,73.00
2023-03-10T07:33:43.075Z,77.70
2023-03-10T07:36:16.001Z,73.57
2023-03-10T07:38:43.470Z,80.20
2023-03-10T07:41:19.288Z,77.35
2023-03-10T07:43:47.064Z,74.90
2023-03-10T07:46:15.565Z,79.03
2023-03-10T07:48:43.211Z,79.68
2023-03-10T07:51:10.827Z,66.93
2023-03-10T07:53:38.087Z,77.35
2023-03-10T07:56:10.553Z,74.13
2023-03-10T07:58:38.057Z,86.13
2023-03-10T08:01:07.069Z,75.75
2023-03-10T08:03:34.748Z,82.28
2023-03-10T08:06:03.857Z,73.15
2023-03-10T08:08:31.101Z,71.28
2023-03-10T08:11:07.485Z,76.25
2023-03-10T08:13:34.926Z,70.07
2023-03-10T08:16:03.175Z,71.43
2023-03-10T08:18:31.009Z,74.57
2023-03-10T08:20:59.162Z,71.85
2023-03-10T08:23:26.599Z,70.72
2023-03-10T08:25:54.034Z,72.95
2023-03-10T08:28:21.255Z,72.97
2023-03-10T08:31:03.124Z,75.32
2023-03-10T08:33:31.436Z,53.28
2023-03-10T08:36:04.097Z,83.72
2023-03-10T08:38:31.474Z,76.18
2023-03-10T08:40:59.307Z,76.55
2023-03-10T08:43:26.631Z,84.18
2023-03-10T08:45:54.072Z,73.75
2023-03-10T08:48:21.303Z,76.70
2023-03-10T08:50:48.700Z,81.32
2023-03-10T08:53:15.960Z,74.35
2023-03-10T08:55:43.426Z,80.25
2023-03-10T08:58:10.695Z,75.18
2023-03-10T09:00:38.256Z,73.32
2023-03-10T09:03:05.445Z,79.60
2023-03-10T09:05:32.937Z,86.05
2023-03-10T09:08:00.178Z,75.70
2023-03-10T09:10:27.807Z,78.78
2023-03-10T09:13:11.055Z,72.93
2023-03-10T09:15:41.669Z,76.20
2023-03-10T09:18:09.573Z,82.25
2023-03-10T09:20:38.696Z,76.22
2023-03-10T09:23:07.014Z,74.30
2023-03-10T09:25:34.736Z,82.82
2023-03-10T09:28:02.113Z,77.40
2023-03-10T09:30:29.810Z,79.50
2023-03-10T09:32:57.331Z,71.78
2023-03-10T09:35:25.269Z,70.47
2023-03-10T09:37:52.502Z,69.15
2023-03-10T09:40:21.031Z,64.82
2023-03-10T09:42:51.963Z,62.92
2023-03-10T09:45:34.646Z,57.60
2023-03-10T09:48:26.993Z,59.90
2023-03-10T09:50:59.398Z,56.22
2023-03-10T09:53:51.672Z,57.65
2023-03-10T09:56:22.603Z,56.92
2023-03-10T09:59:17.237Z,48.42
2023-03-10T10:01:48.252Z,51.85
2023-03-10T10:04:18.849Z,49.38
2023-03-10T10:06:48.210Z,53.45
2023-03-10T10:09:42.336Z,50.20
2023-03-10T10:12:18.123Z,49.28
2023-03-10T10:14:56.787Z,52.47
2023-03-10T10:17:56.738Z,50.75
2023-03-10T10:20:42.933Z,50.03
2023-03-10T10:23:52.718Z,46.53
2023-03-10T10:26:22.246Z,48.53
2023-03-10T10:28:58.814Z,43.78
2023-03-10T10:31:31.280Z,45.35
2023-03-10T10:34:03.967Z,45.03
2023-03-10T10:36:35.491Z,47.67
2023-03-10T10:39:06.160Z,52.88
2023-03-10T10:41:34.895Z,51.38
2023-03-10T10:44:13.199Z,48.40
2023-03-10T10:46:51.989Z,50.60
2023-03-10T10:49:23.876Z,46.50
2023-03-10T10:52:06.452Z,41.53
2023-03-10T10:54:42.290Z,44.55
2023-03-10T10:57:28.106Z,41.53
2023-03-10T10:59:55.850Z,46.17
2023-03-10T11:02:31.303Z,45.17
2023-03-10T11:05:21.457Z,45.88
2023-03-10T11:07:50.669Z,43.35
2023-03-10T11:10:20.753Z,49.83
2023-03-10T11:13:10.487Z,44.85
2023-03-10T11:15:50.133Z,41.60
2023-03-10T11:18:27.959Z,45.63
2023-03-10T11:21:08.535Z,43.67
2023-03-10T11:23:46.686Z,44.35
2023-03-10T11:26:35.574Z,37.85
2023-03-10T11:29:49.783Z,39.50
2023-03-10T11:34:51.965Z,40.70
2023-03-10T11:37:26.268Z,43.65
2023-03-10T11:40:20.014Z,41.05
2023-03-10T11:42:55.376Z,41.78
2023-03-10T11:45:54.853Z,39.15
2023-03-10T11:48:47.421Z,40.90
2023-03-10T11:52:11.580Z,38.72
2023-03-10T11:55:12.367Z,46.97
2023-03-10T11:57:46.499Z,45.38
2023-03-10T12:00:41.093Z,45.90
2023-03-10T12:03:40.200Z,35.92
2023-03-10T12:06:13.208Z,37.60
2023-03-10T12:08:40.816Z,25.35
2023-03-10T12:11:14.733Z,39.22
2023-03-10T12:13:47.475Z,40.83
2023-03-10T12:16:28.509Z,35.90
2023-03-10T12:18:56.091Z,31.52
2023-03-10T12:21:31.440Z,36.90
2023-03-10T12:24:00.768Z,38.08
2023-03-10T12:26:49.965Z,31.65
2023-03-10T12:29:30.027Z,36.47
2023-03-10T12:32:01.172Z,30.70
2023-03-10T12:34:31.903Z,38.25
2023-03-10T12:37:05.879Z,34.75
2023-03-10T12:39:43.226Z,30.70
2023-03-10T12:42:37.088Z,34.60
2023-03-10T12:45:29.397Z,33.70
2023-03-10T12:48:03.237Z,31.92
2023-03-10T12:50:36.621Z,31.58
2023-03-10T12:53:19.443Z,31.92
2023-03-10T12:56:14.832Z,28.63
2023-03-10T12:59:01.845Z,33.47
2023-03-10T13:01:38.455Z,27.48
2023-03-10T13:04:07.209Z,31.52
2023-03-10T13:06:38.094Z,43.80
2023-03-10T13:09:29.665Z,40.75
2023-03-10T13:12:04.481Z,38.65
2023-03-10T13:14:45.177Z,27.95
2023-03-10T13:17:27.397Z,21.35
2023-03-10T13:20:01.221Z,18.07
2023-03-10T13:22:28.974Z,11.82
2023-03-10T13:24:59.103Z,11.55
2023-03-10T13:27:34.401Z,13.50
2023-03-10T13:30:06.068Z,8.40
2023-03-10T13:32:33.916Z,9.57
2023-03-10T13:35:33.927Z,11.05
2023-03-10T13:38:10.298Z,8.23
2023-03-10T13:40:41.455Z,8.55
2023-03-10T13:43:25.815Z,8.73
2023-03-10T13:46:01.223Z,8.52
2023-03-10T13:48:34.306Z,9.23
2023-03-10T13:51:08.935Z,11.82
2023-03-10T13:53:39.374Z,11.70
2023-03-10T13:56:45.475Z,9.82
2023-03-10T13:59:29.543Z,8.65
2023-03-10T14:02:02.311Z,8.02
2023-03-10T14:04:47.239Z,8.93
2023-03-10T14:07:23.790Z,9.00
2023-03-10T14:10:23.275Z,9.32
2023-03-10T14:12:56.235Z,8.13
2023-03-10T14:15:27.955Z,14.45
2023-03-10T14:18:14.557Z,10.75
2023-03-10T14:20:45.952Z,12.15
2023-03-10T14:23:19.532Z,14.70
2023-03-10T14:25:47.833Z,13.02
2023-03-10T14:28:35.987Z,11.63
2023-03-10T14:31:04.877Z,11.52
2023-03-10T14:33:33.239Z,14.77
2023-03-10T14:36:00.747Z,10.95
2023-03-10T14:38:28.790Z,11.27
2023-03-10T14:40:56.302Z,11.48
2023-03-10T14:43:27.906Z,11.57
2023-03-10T14:45:56.981Z,11.52
2023-03-10T14:48:27.196Z,11.75
2023-03-10T14:50:56.918Z,9.68
2023-03-10T14:53:26.430Z,11.02
2023-03-10T14:55:56.115Z,10.00
2023-03-10T14:58:32.101Z,15.88
2023-03-10T15:01:00.416Z,18.25
2023-03-10T15:03:28.751Z,15.68
2023-03-10T15:05:56.433Z,16.48
2023-03-10T15:08:24.970Z,12.82
2023-03-10T15:10:52.559Z,13.63
2023-03-10T15:13:23.831Z,10.30
2023-03-10T15:15:51.620Z,12.80
2023-03-10T15:18:21.939Z,10.77
2023-03-10T15:20:49.753Z,10.55
2023-03-10T15:23:22.576Z,10.52
2023-03-10T15:25:50.180Z,10.80
2023-03-10T15:28:18.312Z,12.80
2023-03-10T15:30:45.961Z,15.68
2023-03-10T15:33:13.886Z,13.23
2023-03-10T15:35:42.331Z,15.90
2023-03-10T15:38:13.502Z,14.93
2023-03-10T15:40:41.203Z,18.90
2023-03-10T15:43:09.171Z,18.20
2023-03-10T15:45:42.674Z,17.35
2023-03-10T15:48:11.045Z,21.02
2023-03-10T15:50:42.462Z,21.13
2023-03-10T15:53:09.951Z,30.75
2023-03-10T15:55:41.508Z,46.95
2023-03-10T15:58:10.939Z,45.95
2023-03-10T16:00:38.659Z,98.05
2023-03-10T16:03:06.410Z,126.15
2023-03-10T16:05:34.968Z,108.78
2023-03-10T16:08:06.515Z,129.48
2023-03-10T16:10:35.170Z,134.20
2023-03-10T16:13:03.232Z,110.20
2023-03-10T16:15:30.698Z,116.68
2023-03-10T16:17:58.441Z,56.38
2023-03-10T16:20:25.898Z,66.43
2023-03-10T16:22:54.924Z,68.38
2023-03-10T16:25:23.071Z,57.08
2023-03-10T16:27:50.914Z,63.40
2023-03-10T16:30:18.984Z,55.65
2023-03-10T16:32:48.759Z,45.55
2023-03-10T16:35:16.982Z,32.38
2023-03-10T16:37:44.747Z,43.10
2023-03-10T16:40:12.680Z,37.22
2023-03-10T16:42:43.436Z,37.30
2023-03-10T16:45:11.330Z,47.65
2023-03-10T16:47:38.987Z,34.88
2023-03-10T16:50:06.602Z,39.67
2023-03-10T16:52:39.592Z,59.90
2023-03-10T16:55:09.399Z,127.90
2023-03-10T16:57:37.067Z,51.88
2023-03-10T17:00:05.790Z,47.50
2023-03-10T17:02:33.299Z,38.80
2023-03-10T17:05:00.818Z,31.50
2023-03-10T17:07:28.557Z,38.00
2023-03-10T17:09:56.029Z,35.65
2023-03-10T17:12:24.460Z,31.27
2023-03-10T17:14:51.910Z,27.55
2023-03-10T17:17:19.478Z,30.25
2023-03-10T17:19:50.828Z,31.40
2023-03-10T17:22:18.502Z,44.78
2023-03-10T17:24:45.838Z,33.45
2023-03-10T17:27:13.440Z,31.17
2023-03-10T17:29:40.673Z,36.70
2023-03-10T17:32:08.297Z,39.00
2023-03-10T17:34:35.793Z,31.92
2023-03-10T17:37:03.619Z,36.47
2023-03-10T17:39:30.962Z,38.30
2023-03-10T17:41:58.647Z,34.13
2023-03-10T17:44:26.481Z,26.92
2023-03-10T17:46:56.119Z,23.33
2023-03-10T17:49:23.500Z,26.75
2023-03-10T17:51:51.442Z,29.98
2023-03-10T17:54:20.722Z,23.95
2023-03-10T17:56:49.528Z,33.30
2023-03-10T17:59:17.336Z,34.45
2023-03-10T18:01:46.206Z,40.13
2023-03-10T18:04:13.700Z,54.97
2023-03-10T18:06:41.453Z,45.88
2023-03-10T18:09:12.524Z,35.75
2023-03-10T18:11:40.681Z,30.30
2023-03-10T18:14:08.068Z,28.63
2023-03-10T18:16:38.935Z,37.63
2023-03-10T18:19:10.514Z,37.40
2023-03-10T18:21:39.114Z,40.13
2023-03-10T18:24:08.631Z,50.20
2023-03-10T18:26:36.885Z,71.40
2023-03-10T18:29:04.697Z,43.00
2023-03-10T18:31:33.313Z,37.80
2023-03-10T18:34:01.234Z,38.58
2023-03-10T18:36:29.641Z,30.48
2023-03-10T18:38:57.668Z,35.45
2023-03-10T18:41:27.805Z,30.85
2023-03-10T18:43:55.303Z,35.42
2023-03-10T18:46:22.957Z,138.63
2023-03-10T18:48:55.723Z,72.47
2023-03-10T18:53:52.085Z,44.13
2023-03-10T18:56:19.734Z,55.55
2023-03-10T18:58:47.105Z,39.60
2023-03-10T19:01:15.725Z,40.75
2023-03-10T19:03:43.156Z,36.00
2023-03-10T19:06:11.024Z,35.50
2023-03-10T19:08:39.132Z,32.67
2023-03-10T19:11:07.272Z,41.25
2023-03-10T19:13:35.423Z,40.97
2023-03-10T19:16:07.768Z,38.05
2023-03-10T19:18:36.001Z,46.13
2023-03-10T19:21:04.204Z,59.53
2023-03-10T19:23:34.387Z,94.38
2023-03-10T19:26:03.678Z,77.28
2023-03-10T19:28:32.168Z,135.80
2023-03-10T19:31:00.468Z,71.85
2023-03-10T19:33:28.690Z,57.63
2023-03-10T19:36:05.493Z,66.63
2023-03-10T19:38:38.320Z,57.67
2023-03-10T19:41:12.527Z,47.42
2023-03-10T19:43:40.490Z,47.70
2023-03-10T19:46:12.033Z,54.15
2023-03-10T19:48:41.508Z,53.05
2023-03-10T19:51:10.085Z,52.72
2023-03-10T19:53:37.955Z,47.10
2023-03-10T19:56:07.951Z,45.72
2023-03-10T19:58:36.335Z,48.55
2023-03-10T20:01:05.023Z,40.17
2023-03-10T20:03:34.809Z,49.03
2023-03-10T20:06:05.319Z,48.60
2023-03-10T20:08:34.669Z,46.00
2023-03-10T20:11:03.507Z,45.53
2023-03-10T20:13:33.013Z,49.00
2023-03-10T20:16:01.412Z,45.95
2023-03-10T20:18:30.534Z,49.70
2023-03-10T20:21:02.442Z,50.17
2023-03-10T20:23:30.180Z,47.85
2023-03-10T20:26:07.481Z,62.83
2023-03-10T20:28:36.202Z,43.58
2023-03-10T20:31:04.807Z,49.30
2023-03-10T20:33:32.701Z,41.60
2023-03-10T20:36:01.703Z,48.97
2023-03-10T20:38:29.774Z,49.95
2023-03-10T20:40:57.835Z,40.22
2023-03-10T20:43:25.761Z,41.50
2023-03-10T20:45:54.482Z,42.45
2023-03-10T20:48:22.854Z,32.88
2023-03-10T20:50:55.654Z,33.83
2023-03-10T20:53:26.723Z,38.17
2023-03-10T20:55:55.121Z,33.78
2023-03-10T20:58:22.879Z,28.20
2023-03-10T21:00:51.767Z,31.10
2023-03-10T21:03:21.861Z,31.58
2023-03-10T21:05:50.676Z,35.88
2023-03-10T21:08:18.547Z,27.98
2023-03-10T21:10:49.326Z,33.58
2023-03-10T21:13:17.784Z,31.73
2023-03-10T21:15:46.412Z,39.55
2023-03-10T21:18:14.456Z,43.90
2023-03-10T21:20:43.265Z,46.33
2023-03-10T21:23:11.206Z,38.72
2023-03-10T21:25:40.751Z,39.30
2023-03-10T21:28:09.001Z,43.33
2023-03-10T21:30:37.552Z,42.83
2023-03-10T21:33:06.051Z,43.55
2023-03-10T21:35:38.787Z,55.55
2023-03-10T21:38:07.264Z,51.60
2023-03-10T21:40:36.126Z,49.92
2023-03-10T21:43:04.918Z,61.10
2023-03-10T21:45:37.454Z,57.92
2023-03-10T21:48:06.659Z,79.88
2023-03-10T21:50:44.586Z,75.20
2023-03-10T21:53:16.448Z,56.20
2023-03-10T21:55:45.951Z,53.42
2023-03-10T21:58:22.577Z,57.58
2023-03-10T22:00:56.156Z,52.00
2023-03-10T22:03:24.869Z,55.40
2023-03-10T22:05:53.448Z,51.38
2023-03-10T22:08:22.680Z,57.35
2023-03-10T22:10:51.422Z,56.00
2023-03-10T22:13:19.465Z,56.47
2023-03-10T22:15:47.770Z,54.78
2023-03-10T22:18:16.550Z,57.25
2023-03-10T22:20:44.898Z,60.28
2023-03-10T22:23:13.189Z,63.70
2023-03-10T22:25:48.801Z,68.68
2023-03-10T22:28:17.359Z,85.63
2023-03-10T22:30:47.516Z,74.63
2023-03-10T22:33:19.822Z,69.28
2023-03-10T22:35:52.576Z,70.13
2023-03-10T22:38:22.036Z,78.85
2023-03-10T22:40:55.260Z,78.63
2023-03-10T22:43:23.532Z,87.82
2023-03-10T22:45:52.299Z,87.07
2023-03-10T22:48:20.840Z,71.82
2023-03-10T22:50:48.846Z,67.90
2023-03-10T22:53:18.492Z,66.13
2023-03-10T22:55:48.965Z,71.07
2023-03-10T22:58:17.518Z,61.00
2023-03-10T23:00:46.574Z,65.97
2023-03-10T23:03:15.709Z,60.47
2023-03-10T23:05:45.632Z,56.08
2023-03-10T23:08:13.680Z,54.08
2023-03-10T23:10:42.097Z,51.65
2023-03-10T23:13:14.666Z,49.25
2023-03-10T23:15:44.278Z,43.17
2023-03-10T23:18:12.078Z,43.55
2023-03-10T23:20:42.868Z,44.83
2023-03-10T23:23:12.941Z,49.92
2023-03-10T23:25:43.921Z,46.65
2023-03-10T23:28:11.842Z,43.20
2023-03-10T23:30:41.942Z,41.72
2023-03-10T23:33:13.408Z,45.05
2023-03-10T23:35:41.978Z,43.17
2023-03-10T23:38:10.596Z,45.75
2023-03-10T23:40:38.535Z,42.97
2023-03-10T23:43:07.147Z,43.97
2023-03-10T23:45:37.013Z,47.88
2023-03-10T23:48:07.537Z,42.10
2023-03-10T23:50:38.355Z,49.05
2023-03-10T23:53:07.857Z,49.38
2023-03-10T23:55:38.750Z,47.45
2023-03-10T23:58:07.211Z,44.05
